Flight Track Log - Related Links

Times and Time Zones

All times are in EDT time to prevent confusion due to time zone crossing. See the ASQ4117 flight status page for this flight to view local times or setup timezone preferences in your user account.

Time Position Orientation Groundspeed Altitude Reporting Facility
EDT Latitude Longitude Course Direction KTS MPH feet Rate Location/Type
Tue 08:06:05 AM 41.9667 -87.9833 11° North 186 214 3,600  Level Chicago TRACON
Tue 08:07:11 AM 41.9667 -88.0667 270° West 232 267 5,000 762 Climbing Chicago TRACON
Tue 08:08:00 AM 42.3393 -87.7814 14° North  Level FlightAware Approximate
Tue 08:08:11 AM 41.9667 -88.1500 270° West 244 281 5,200  Level Chicago TRACON
Tue 08:09:00 AM 42.4651 -87.7394 14° North  Level FlightAware Approximate
Tue 08:09:11 AM 42.0167 -88.2333 309° West 270 311 7,500  Level Chicago TRACON
Tue 08:10:00 AM 42.5910 -87.6975 14° North  Level FlightAware Approximate
Tue 08:10:21 AM 42.0892 -88.1644 35° Northeast 305 351 9,700  Level Chicago Center
Tue 08:11:00 AM 42.7063 -87.6635 11° North  Level FlightAware Approximate
Tue 08:11:23 AM 42.1556 -88.0847 42° Northeast 321 369 11,500  Level Chicago Center
Tue 08:12:25 AM 42.2322 -88.0192 32° Northeast 338 389 13,100 1,659 Climbing Chicago Center
Tue 08:13:26 AM 42.3289 -87.9936 11° North 334 384 14,900 1,366 Climbing Chicago Center
Tue 08:14:28 AM 42.4194 -87.9258 29° Northeast 369 425 15,900 968 Climbing Chicago Center
Tue 08:15:30 AM 42.5158 -87.8578 27° Northeast 387 445 16,900 968 Climbing Chicago Center
Tue 08:16:32 AM 42.6144 -87.7869 28° Northeast 400 460 17,900 1,065 Climbing Chicago Center
Tue 08:17:34 AM 42.7317 -87.7031 28° Northeast 406 467 19,100 1,065 Climbing Chicago Center
Tue 08:18:36 AM 42.8317 -87.6236 30° Northeast 414 476 20,100 1,016 Climbing Chicago Center
Tue 08:19:38 AM 42.9106 -87.5000 49° Northeast 430 495 21,200 1,024 Climbing Chicago Center
Tue 08:20:39 AM 42.9886 -87.3778 49° Northeast 430 495 22,200 976 Climbing Chicago Center
Tue 08:21:41 AM 43.0619 -87.2617 49° Northeast 432 497 23,200 1,065 Climbing Chicago Center
Tue 08:22:43 AM 43.1569 -87.1125 49° Northeast 433 498 24,400 1,113 Climbing Chicago Center
Tue 08:23:45 AM 43.2361 -86.9867 49° Northeast 435 501 25,500 1,016 Climbing Chicago Center
Tue 08:24:47 AM 43.3125 -86.8625 50° Northeast 429 494 26,500 968 Climbing Chicago Center
Tue 08:25:49 AM 43.3906 -86.7375 49° Northeast 430 495 27,500 968 Climbing Chicago Center
Tue 08:26:51 AM 43.4678 -86.6117 50° Northeast 429 494 28,500 1,016 Climbing Chicago Center
Tue 08:27:53 AM 43.5469 -86.4844 49° Northeast 434 499 29,600 1,016 Climbing Chicago Center
Tue 08:28:55 AM 43.6256 -86.3569 50° Northeast 435 501 30,600 968 Climbing Chicago Center
Tue 08:29:57 AM 43.7036 -86.2275 50° Northeast 436 502 31,600 1,113 Climbing Chicago Center
Tue 08:30:59 AM 43.7967 -86.0728 50° Northeast 434 499 32,900 1,113 Climbing Chicago Center
Tue 08:32:01 AM 43.8758 -85.9397 50° Northeast 444 511 33,900 1,049 Climbing Chicago Center
Tue 08:32:42 AM 43.9333 -85.8333 53° Northeast 450 518 34,700 653 Climbing Toronto Center
Tue 08:33:42 AM 43.9833 -85.7000 62° Northeast 460 529 35,000 167 Climbing Toronto Center
Tue 08:34:30 AM 44.0278 -85.6194 52° Northeast 466 536 35,000  Level Minneapolis Center
Tue 08:35:44 AM 44.0758 -85.3747 75° East 483 556 35,000  Level Minneapolis Center
Tue 08:36:46 AM 44.1183 -85.1589 75° East 486 559 35,000  Level Minneapolis Center
Tue 08:37:48 AM 44.1547 -84.9797 74° East 486 559 35,000  Level Minneapolis Center
Tue 08:38:49 AM 44.1897 -84.7997 75° East 484 557 35,000  Level Minneapolis Center
Tue 08:39:51 AM 44.2239 -84.6208 75° East 482 555 35,000  Level Minneapolis Center
Tue 08:40:53 AM 44.2567 -84.4419 76° East 479 551 35,000  Level Minneapolis Center
Tue 08:41:55 AM 44.2983 -84.2250 75° East 484 557 35,000  Level Minneapolis Center
Tue 08:42:56 AM 44.3317 -84.0461 75° East 481 554 35,000  Level Minneapolis Center
Tue 08:43:58 AM 44.3656 -83.8639 75° East 483 556 35,000  Level Minneapolis Center
Tue 08:45:42 AM 44.4167 -83.5333 78° East 480 552 35,000  Level Toronto Center
Tue 08:46:42 AM 44.4167 -83.3500 90° East 480 552 35,000  Level Toronto Center
Tue 08:47:42 AM 44.4000 -83.1833 98° East 480 552 35,000  Level Toronto Center
Tue 08:48:42 AM 44.3833 -82.9667 96° East 480 552 35,000  Level Toronto Center
Tue 08:49:42 AM 44.3833 -82.8000 90° East 480 552 35,000  Level Toronto Center
Tue 08:50:42 AM 44.3833 -82.6000 90° East 480 552 35,000  Level Toronto Center
Tue 08:51:42 AM 44.3667 -82.4333 98° East 480 552 35,000  Level Toronto Center
Tue 08:52:42 AM 44.3667 -82.2167 90° East 480 552 35,000  Level Toronto Center
Tue 08:53:42 AM 44.3500 -82.0333 97° East 480 552 35,000  Level Toronto Center
Tue 08:54:42 AM 44.3667 -81.8667 82° East 490 564 35,000  Level Toronto Center
Tue 08:55:42 AM 44.3500 -81.6667 97° East 480 552 35,000  Level Toronto Center
Tue 08:56:42 AM 44.3333 -81.4667 97° East 490 564 35,000  Level Toronto Center
Tue 08:57:42 AM 44.3333 -81.2833 90° East 490 564 35,000  Level Toronto Center
Tue 08:58:42 AM 44.3167 -81.1000 97° East 490 564 35,000  Level Toronto Center
Tue 08:59:42 AM 44.3167 -80.9167 90° East 490 564 35,000  Level Toronto Center
Tue 09:01:42 AM 44.3000 -80.5333 93° East 480 552 35,000  Level Toronto Center
Tue 09:02:42 AM 44.3000 -80.3500 90° East 470 541 35,000  Level Toronto Center
Tue 09:03:42 AM 44.2833 -80.1667 97° East 460 529 35,000  Level Toronto Center
Tue 09:04:42 AM 44.2833 -80.0000 90° East 460 529 35,000  Level Toronto Center
Tue 09:05:42 AM 44.2667 -79.8167 97° East 470 541 35,000  Level Toronto Center
Tue 09:06:42 AM 44.2667 -79.6333 90° East 470 541 35,000  Level Toronto Center
Tue 09:07:42 AM 44.2500 -79.4500 97° East 480 552 35,000  Level Toronto Center
Tue 09:08:42 AM 44.2333 -79.2667 97° East 480 552 35,000  Level Toronto Center
Tue 09:09:42 AM 44.2333 -79.0667 90° East 490 564 35,000  Level Toronto Center
Tue 09:10:42 AM 44.2167 -78.8833 97° East 490 564 35,000  Level Toronto Center
Tue 09:11:42 AM 44.2167 -78.6833 90° East 490 564 35,000  Level Toronto Center
Tue 09:12:42 AM 44.2000 -78.5167 98° East 490 564 35,000  Level Toronto Center
Tue 09:13:42 AM 44.1667 -78.3000 102° East 500 575 35,000  Level Toronto Center
Tue 09:14:42 AM 44.1667 -78.1167 90° East 500 575 35,000  Level Toronto Center
Tue 09:15:42 AM 44.1833 -77.9333 83° East 490 564 35,000 -233 Level Toronto Center
Tue 09:17:42 AM 44.3333 -77.6333 55° Northeast 490 564 34,300 -1,067 Descending Toronto Center
Tue 09:18:42 AM 44.4000 -77.4667 61° Northeast 480 552 31,800 -2,550 Descending Toronto Center
Tue 09:19:42 AM 44.4667 -77.3000 61° Northeast 490 564 29,200 -2,733 Descending Toronto Center
Tue 09:21:53 AM 44.6333 -76.9833 53° Northeast 490 564 23,100 -2,545 Descending Montreal Center
Tue 09:22:53 AM 44.7000 -76.8333 58° Northeast 470 541 21,100 -2,000 Descending Montreal Center
Tue 09:23:53 AM 44.7833 -76.6833 52° Northeast 440 506 19,100 -1,950 Descending Montreal Center
Tue 09:24:53 AM 44.8500 -76.5667 51° Northeast 430 495 17,200 -1,900 Descending Montreal Center
Tue 09:25:53 AM 44.9000 -76.4167 65° Northeast 420 483 15,300 -1,950 Descending Montreal Center
Tue 09:26:53 AM 44.9833 -76.3000 45° Northeast 400 460 13,300 -1,900 Descending Montreal Center
Tue 09:27:53 AM 45.0333 -76.1833 59° Northeast 390 449 11,500 -1,550 Descending Montreal Center
Tue 09:28:53 AM 45.1000 -76.0667 51° Northeast 340 391 10,200 -1,350 Descending Montreal Center
Tue 09:29:53 AM 45.1000 -75.9500 90° East 310 357 8,800 -1,500 Descending Montreal Center
Tue 09:30:53 AM 45.1000 -75.8000 90° East 300 345 7,200 -1,500 Descending Montreal Center
Tue 09:31:53 AM 45.1167 -75.7000 77° East 290 334 5,800 -1,500 Descending Montreal Center
Tue 09:32:53 AM 45.1167 -75.5833 90° East 270 311 4,200 -1,350 Descending Montreal Center
Tue 09:33:53 AM 45.1500 -75.5167 55° Northeast 240 276 3,100 -600 Descending Montreal Center
Tue 09:34:53 AM 45.2000 -75.5000 13° North 210 242 3,000 -100 Descending Montreal Center

Login

Don't have an account? Register now (free) for customized features, flight alerts, and more!